createdAt,value
2023-01-29T00:01:08.762Z,3.22
2023-01-29T00:04:15.632Z,3.28
2023-01-29T00:07:21.019Z,2.37
2023-01-29T00:10:26.887Z,1.42
2023-01-29T00:13:34.760Z,1.95
2023-01-29T00:16:39.966Z,3.13
2023-01-29T00:19:45.437Z,4.04
2023-01-29T00:22:50.693Z,4.01
2023-01-29T00:25:55.881Z,2.69
2023-01-29T00:29:02.689Z,1.54
2023-01-29T00:32:08.188Z,1.48
2023-01-29T00:35:15.536Z,2.51
2023-01-29T00:38:20.747Z,3.31
2023-01-29T00:41:45.261Z,3.67
2023-01-29T00:44:59.842Z,2.58
2023-01-29T00:48:05.613Z,1.28
2023-01-29T00:51:10.936Z,1.18
2023-01-29T00:54:16.320Z,2.17
2023-01-29T00:57:21.580Z,3.06
2023-01-29T01:00:26.884Z,3.35
2023-01-29T01:03:36.858Z,2.39
2023-01-29T01:06:42.939Z,1.12
2023-01-29T01:10:05.806Z,1.17
2023-01-29T01:13:11.133Z,2.46
2023-01-29T01:16:18.619Z,3.26
2023-01-29T01:19:23.987Z,4.07
2023-01-29T01:22:29.813Z,3.83
2023-01-29T01:25:35.155Z,2.32
2023-01-29T01:28:40.475Z,1.17
2023-01-29T01:31:45.965Z,0.47
2023-01-29T01:34:52.916Z,1.39
2023-01-29T01:37:58.232Z,2.62
2023-01-29T01:41:03.644Z,3.49
2023-01-29T01:44:09.059Z,4.07
2023-01-29T01:47:15.657Z,3.14
2023-01-29T01:50:28.319Z,1.67
2023-01-29T01:53:37.503Z,0.72
2023-01-29T01:56:45.564Z,1.28
2023-01-29T01:59:52.444Z,2.42
2023-01-29T02:03:15.421Z,3.24
2023-01-29T02:06:38.211Z,3.69
2023-01-29T02:09:46.457Z,2.35
2023-01-29T02:12:52.420Z,1.19
2023-01-29T02:15:57.746Z,0.67
2023-01-29T02:19:03.645Z,1.56
2023-01-29T02:22:18.219Z,2.89
2023-01-29T02:25:36.244Z,3.85
2023-01-29T02:28:45.412Z,4.49
2023-01-29T02:31:54.045Z,3.81
2023-01-29T02:35:24.841Z,2.33
2023-01-29T02:38:34.623Z,2.28
2023-01-29T02:41:43.807Z,3.11
2023-01-29T02:44:56.788Z,4.03
2023-01-29T02:48:03.400Z,4.38
2023-01-29T02:51:11.791Z,3.29
2023-01-29T02:54:20.141Z,2.06
2023-01-29T02:57:29.299Z,2.93
2023-01-29T03:00:37.711Z,3.79
2023-01-29T03:03:45.677Z,3.66
2023-01-29T03:06:54.548Z,2.60
2023-01-29T03:10:00.684Z,1.71
2023-01-29T03:13:09.669Z,2.68
2023-01-29T03:16:19.625Z,3.75
2023-01-29T03:19:31.913Z,4.35
2023-01-29T03:22:40.606Z,3.47
2023-01-29T03:26:03.404Z,2.24
2023-01-29T03:29:28.409Z,2.32
2023-01-29T03:32:36.149Z,3.41
2023-01-29T03:35:44.215Z,3.63
2023-01-29T03:38:49.819Z,3.15
2023-01-29T03:41:57.477Z,2.23
2023-01-29T03:45:08.632Z,2.44
2023-01-29T03:48:23.831Z,3.30
2023-01-29T03:51:31.235Z,3.77
2023-01-29T03:54:40.883Z,3.17
2023-01-29T03:57:53.478Z,2.01
2023-01-29T04:01:02.267Z,1.96
2023-01-29T04:04:13.518Z,2.78
2023-01-29T04:07:23.809Z,3.22
2023-01-29T04:10:37.416Z,3.71
2023-01-29T04:13:44.785Z,3.68
2023-01-29T04:16:53.817Z,2.52
2023-01-29T04:20:10.533Z,1.72
2023-01-29T04:23:22.747Z,2.34
2023-01-29T04:26:34.137Z,3.26
2023-01-29T04:29:47.784Z,3.46
2023-01-29T04:32:58.673Z,3.97
2023-01-29T04:36:11.030Z,3.34
2023-01-29T04:39:18.868Z,2.18
2023-01-29T04:42:28.652Z,1.93
2023-01-29T04:45:40.247Z,3.10
2023-01-29T04:48:52.779Z,3.95
2023-01-29T04:52:02.501Z,4.23
2023-01-29T04:55:10.909Z,3.24
2023-01-29T04:58:21.142Z,2.33
2023-01-29T05:01:29.748Z,3.19
2023-01-29T05:04:35.665Z,3.98
2023-01-29T05:07:42.797Z,4.11
2023-01-29T05:10:49.346Z,2.79
2023-01-29T05:13:55.116Z,1.89
2023-01-29T05:17:03.379Z,2.24
2023-01-29T05:20:09.954Z,3.36
2023-01-29T05:23:18.311Z,4.12
2023-01-29T05:26:41.100Z,4.38
2023-01-29T05:29:47.203Z,3.11
2023-01-29T05:32:52.573Z,2.17
2023-01-29T05:35:59.422Z,2.84
2023-01-29T05:39:04.823Z,3.66
2023-01-29T05:42:10.346Z,4.29
2023-01-29T05:45:15.706Z,3.74
2023-01-29T05:48:21.282Z,2.49
2023-01-29T05:51:26.553Z,2.07
2023-01-29T05:54:31.907Z,2.71
2023-01-29T05:57:37.335Z,3.59
2023-01-29T06:00:42.671Z,3.58
2023-01-29T06:03:48.290Z,4.01
2023-01-29T06:06:53.680Z,4.14
2023-01-29T06:09:58.869Z,4.48
2023-01-29T06:13:04.202Z,4.69
2023-01-29T06:16:10.904Z,4.93
2023-01-29T06:19:18.157Z,4.53
2023-01-29T06:22:23.538Z,3.38
2023-01-29T06:25:29.182Z,2.36
2023-01-29T06:28:34.319Z,2.83
2023-01-29T06:31:40.574Z,3.64
2023-01-29T06:34:48.644Z,4.09
2023-01-29T06:37:55.071Z,4.46
2023-01-29T06:41:00.694Z,4.81
2023-01-29T06:44:06.108Z,4.69
2023-01-29T06:47:11.409Z,4.73
2023-01-29T06:50:17.275Z,4.84
2023-01-29T06:53:22.769Z,4.92
2023-01-29T06:56:28.382Z,3.44
2023-01-29T06:59:33.813Z,3.54
2023-01-29T07:02:39.046Z,4.53
2023-01-29T07:05:44.669Z,4.99
2023-01-29T07:08:49.916Z,5.00
2023-01-29T07:11:55.141Z,5.21
2023-01-29T07:15:00.497Z,5.44
2023-01-29T07:18:12.157Z,5.72
2023-01-29T07:21:17.903Z,5.90
2023-01-29T07:24:23.037Z,5.24
2023-01-29T07:27:28.608Z,3.81
2023-01-29T07:30:34.181Z,2.86
2023-01-29T07:33:39.501Z,3.54
2023-01-29T07:36:44.974Z,4.44
2023-01-29T07:39:50.299Z,4.78
2023-01-29T07:43:00.511Z,5.07
2023-01-29T07:46:06.163Z,5.58
2023-01-29T07:49:11.642Z,5.75
2023-01-29T07:52:16.948Z,4.90
2023-01-29T07:55:22.377Z,3.48
2023-01-29T07:58:27.621Z,3.83
2023-01-29T08:01:32.810Z,4.55
2023-01-29T08:04:38.041Z,4.86
2023-01-29T08:07:44.826Z,5.15
2023-01-29T08:10:52.733Z,5.35
2023-01-29T08:13:58.169Z,5.15
2023-01-29T08:17:03.533Z,5.34
2023-01-29T08:20:10.320Z,5.07
2023-01-29T08:23:16.430Z,5.32
2023-01-29T08:26:22.008Z,5.74
2023-01-29T08:29:27.366Z,5.88
2023-01-29T08:32:32.896Z,6.07
2023-01-29T08:35:38.742Z,6.46
2023-01-29T08:38:44.057Z,5.56
2023-01-29T08:41:49.256Z,4.45
2023-01-29T08:44:54.538Z,4.85
2023-01-29T08:47:59.822Z,5.13
2023-01-29T08:51:05.865Z,5.33
2023-01-29T08:54:11.232Z,5.32
2023-01-29T08:57:16.536Z,5.74
2023-01-29T09:00:22.468Z,5.79
2023-01-29T09:03:27.724Z,5.94
2023-01-29T09:06:32.843Z,5.90
2023-01-29T09:09:38.894Z,5.18
2023-01-29T09:12:44.124Z,5.48
2023-01-29T09:15:49.238Z,5.95
2023-01-29T09:18:55.269Z,5.66
2023-01-29T09:22:00.688Z,5.89
2023-01-29T09:25:06.397Z,6.13
2023-01-29T09:28:12.037Z,5.23
2023-01-29T09:31:17.543Z,4.32
2023-01-29T09:34:22.913Z,4.31
2023-01-29T09:37:28.072Z,5.15
2023-01-29T09:40:36.611Z,5.61
2023-01-29T09:43:45.269Z,5.34
2023-01-29T09:46:52.758Z,5.47
2023-01-29T09:50:00.013Z,5.67
2023-01-29T09:53:11.333Z,5.12
2023-01-29T09:56:20.477Z,5.69
2023-01-29T09:59:27.685Z,5.80
2023-01-29T10:02:48.280Z,5.82
2023-01-29T10:06:01.499Z,6.20
2023-01-29T10:09:26.059Z,6.13
2023-01-29T10:12:35.686Z,5.79
2023-01-29T10:15:47.613Z,5.68
2023-01-29T10:18:59.865Z,5.71
2023-01-29T10:22:16.617Z,5.92
2023-01-29T10:25:22.628Z,6.02
2023-01-29T10:28:30.741Z,6.03
2023-01-29T10:31:39.088Z,5.29
2023-01-29T10:34:46.503Z,5.49
2023-01-29T10:37:53.276Z,5.55
2023-01-29T10:41:03.883Z,5.77
2023-01-29T10:44:17.943Z,5.68
2023-01-29T10:47:33.290Z,5.80
2023-01-29T10:50:46.608Z,5.90
2023-01-29T10:54:00.437Z,6.16
2023-01-29T10:57:12.371Z,5.93
2023-01-29T11:00:21.717Z,6.16
2023-01-29T11:03:28.938Z,5.81
2023-01-29T11:06:36.413Z,5.85
2023-01-29T11:09:44.316Z,5.70
2023-01-29T11:12:50.442Z,6.00
2023-01-29T11:15:55.743Z,5.74
2023-01-29T11:19:02.186Z,5.53
2023-01-29T11:22:13.668Z,5.74
2023-01-29T11:25:20.061Z,6.06
2023-01-29T11:28:38.833Z,5.71
2023-01-29T11:31:43.966Z,5.35
2023-01-29T11:34:59.205Z,5.56
2023-01-29T11:38:18.998Z,5.53
2023-01-29T11:41:25.528Z,6.08
2023-01-29T11:44:32.240Z,5.91
2023-01-29T11:47:37.626Z,6.42
2023-01-29T11:50:43.454Z,6.59
2023-01-29T11:53:52.366Z,6.88
2023-01-29T11:56:58.218Z,5.97
2023-01-29T12:00:06.505Z,5.10
2023-01-29T12:03:16.660Z,5.79
2023-01-29T12:06:24.068Z,5.79
2023-01-29T12:09:30.642Z,5.82
2023-01-29T12:12:39.303Z,6.10
2023-01-29T12:15:44.600Z,5.99
2023-01-29T12:18:54.281Z,5.48
2023-01-29T12:22:03.090Z,5.76
2023-01-29T12:25:18.307Z,5.68
2023-01-29T12:28:32.750Z,5.66
2023-01-29T12:31:45.095Z,5.93
2023-01-29T12:34:52.473Z,5.88
2023-01-29T12:38:00.967Z,6.09
2023-01-29T12:41:09.363Z,6.16
2023-01-29T12:44:17.173Z,5.64
2023-01-29T12:47:26.395Z,6.02
2023-01-29T12:50:34.617Z,6.01
2023-01-29T12:53:42.782Z,5.95
2023-01-29T12:56:49.906Z,5.94
2023-01-29T12:59:59.288Z,6.20
2023-01-29T13:03:08.939Z,6.19
2023-01-29T13:06:16.963Z,5.69
2023-01-29T13:09:23.386Z,5.80
2023-01-29T13:12:29.599Z,6.28
2023-01-29T13:15:37.458Z,6.33
2023-01-29T13:18:45.630Z,6.04
2023-01-29T13:21:52.509Z,6.53
2023-01-29T13:25:05.187Z,6.62
2023-01-29T13:28:18.124Z,6.49
2023-01-29T13:31:28.605Z,6.66
2023-01-29T13:34:35.731Z,6.29
2023-01-29T13:37:43.347Z,5.92
2023-01-29T13:40:51.140Z,6.32
2023-01-29T13:43:56.854Z,6.52
2023-01-29T13:47:05.223Z,6.34
2023-01-29T13:50:14.537Z,6.57
2023-01-29T13:53:23.557Z,6.46
2023-01-29T13:56:44.134Z,6.60
2023-01-29T13:59:53.242Z,6.82
2023-01-29T14:03:12.328Z,6.85
2023-01-29T14:06:31.088Z,5.38
2023-01-29T14:09:49.845Z,5.65
2023-01-29T14:12:55.719Z,6.03
2023-01-29T14:16:18.513Z,6.12
2023-01-29T14:19:25.724Z,6.45
2023-01-29T14:22:33.796Z,6.44
2023-01-29T14:25:40.719Z,6.43
2023-01-29T14:28:53.470Z,5.73
2023-01-29T14:32:01.346Z,6.22
2023-01-29T14:35:18.885Z,5.75
2023-01-29T14:38:26.482Z,5.93
2023-01-29T14:41:33.626Z,6.08
2023-01-29T14:44:58.513Z,6.25
2023-01-29T14:48:05.802Z,5.86
2023-01-29T14:51:11.976Z,5.86
2023-01-29T14:54:23.805Z,5.88
2023-01-29T14:57:30.651Z,5.73
2023-01-29T15:00:38.223Z,5.58
2023-01-29T15:03:45.542Z,5.45
2023-01-29T15:06:54.027Z,5.57
2023-01-29T15:10:21.367Z,5.53
2023-01-29T15:13:32.133Z,5.22
2023-01-29T15:16:42.169Z,5.04
2023-01-29T15:19:49.075Z,5.50
2023-01-29T15:22:54.398Z,5.20
2023-01-29T15:26:03.305Z,5.31
2023-01-29T15:29:22.175Z,5.29
2023-01-29T15:32:29.531Z,5.39
2023-01-29T15:35:37.146Z,5.41
2023-01-29T15:38:42.704Z,5.65
2023-01-29T15:41:48.329Z,5.64
2023-01-29T15:44:55.461Z,6.00
2023-01-29T15:48:03.988Z,5.89
2023-01-29T15:51:12.004Z,5.93
2023-01-29T15:54:18.048Z,5.49
2023-01-29T15:57:25.222Z,5.40
2023-01-29T16:00:31.561Z,5.83
2023-01-29T16:03:37.694Z,5.92
2023-01-29T16:06:43.619Z,5.84
2023-01-29T16:09:49.393Z,5.88
2023-01-29T16:12:54.943Z,6.04
2023-01-29T16:16:01.852Z,5.65
2023-01-29T16:19:20.986Z,5.96
2023-01-29T16:22:26.979Z,5.97
2023-01-29T16:25:33.210Z,5.99
2023-01-29T16:28:42.450Z,5.98
2023-01-29T16:31:49.159Z,5.92
2023-01-29T16:34:57.284Z,5.76
2023-01-29T16:38:04.310Z,6.02
2023-01-29T16:41:16.229Z,6.36
2023-01-29T16:44:35.638Z,6.02
2023-01-29T16:47:41.611Z,5.97
2023-01-29T16:50:55.141Z,5.90
2023-01-29T16:54:02.173Z,6.05
2023-01-29T16:57:07.743Z,6.15
2023-01-29T17:00:19.290Z,6.10
2023-01-29T17:03:26.650Z,6.04
2023-01-29T17:06:32.787Z,5.82
2023-01-29T17:09:38.971Z,5.85
2023-01-29T17:12:49.596Z,5.44
2023-01-29T17:15:55.119Z,5.46
2023-01-29T17:19:01.102Z,5.94
2023-01-29T17:22:08.498Z,5.94
2023-01-29T17:25:16.244Z,5.94
2023-01-29T17:28:22.005Z,6.17
2023-01-29T17:31:27.808Z,6.30
2023-01-29T17:34:33.053Z,6.03
2023-01-29T17:37:38.317Z,5.86
2023-01-29T17:40:45.672Z,5.75
2023-01-29T17:43:51.016Z,5.84
2023-01-29T17:46:56.355Z,5.84
2023-01-29T17:50:01.882Z,5.87
2023-01-29T17:53:07.379Z,6.04
2023-01-29T17:56:15.532Z,5.50
2023-01-29T17:59:21.554Z,5.61
2023-01-29T18:02:29.160Z,5.88
2023-01-29T18:05:35.239Z,5.52
2023-01-29T18:08:40.859Z,5.80
2023-01-29T18:11:46.105Z,5.95
2023-01-29T18:14:51.402Z,5.82
2023-01-29T18:17:57.371Z,5.62
2023-01-29T18:21:02.724Z,5.56
2023-01-29T18:24:08.546Z,5.69
2023-01-29T18:27:13.957Z,5.97
2023-01-29T18:30:19.451Z,5.59
2023-01-29T18:33:25.867Z,5.84
2023-01-29T18:36:31.269Z,5.83
2023-01-29T18:39:36.672Z,6.16
2023-01-29T18:42:42.013Z,5.98
2023-01-29T18:45:48.731Z,5.35
2023-01-29T18:48:54.156Z,5.66
2023-01-29T18:51:59.503Z,5.65
2023-01-29T18:55:09.752Z,5.54
2023-01-29T18:58:27.338Z,5.30
2023-01-29T19:01:39.322Z,5.11
2023-01-29T19:04:46.964Z,5.50
2023-01-29T19:07:53.397Z,5.42
2023-01-29T19:11:02.390Z,5.64
2023-01-29T19:14:07.793Z,5.62
2023-01-29T19:17:13.229Z,5.68
2023-01-29T19:20:18.804Z,5.44
2023-01-29T19:23:24.239Z,5.37
2023-01-29T19:26:33.872Z,5.53
2023-01-29T19:29:39.362Z,5.37
2023-01-29T19:32:44.654Z,5.31
2023-01-29T19:35:49.856Z,5.53
2023-01-29T19:38:55.359Z,5.48
2023-01-29T19:42:01.282Z,5.81
2023-01-29T19:45:07.609Z,5.77
2023-01-29T19:48:13.749Z,5.73
2023-01-29T19:51:19.057Z,5.97
2023-01-29T19:54:27.424Z,5.53
2023-01-29T19:57:33.049Z,5.46
2023-01-29T20:00:38.361Z,5.62
2023-01-29T20:03:46.453Z,5.92
2023-01-29T20:06:51.853Z,5.74
2023-01-29T20:09:57.252Z,5.76
2023-01-29T20:13:02.654Z,5.62
2023-01-29T20:16:08.805Z,5.86
2023-01-29T20:19:15.256Z,5.79
2023-01-29T20:22:20.700Z,5.73
2023-01-29T20:25:26.214Z,5.61
2023-01-29T20:28:31.685Z,5.79
2023-01-29T20:31:37.122Z,6.00
2023-01-29T20:34:42.525Z,5.77
2023-01-29T20:37:47.720Z,5.43
2023-01-29T20:40:53.111Z,5.40
2023-01-29T20:43:58.566Z,5.40
2023-01-29T20:47:04.142Z,5.55
2023-01-29T20:50:11.572Z,5.61
2023-01-29T20:53:17.039Z,5.81
2023-01-29T20:56:32.230Z,5.85
2023-01-29T20:59:42.291Z,5.81
2023-01-29T21:02:47.809Z,5.80
2023-01-29T21:05:54.393Z,5.91
2023-01-29T21:08:59.682Z,5.93
2023-01-29T21:12:05.720Z,5.80
2023-01-29T21:15:12.040Z,5.73
2023-01-29T21:18:17.348Z,5.71
2023-01-29T21:21:22.682Z,5.83
2023-01-29T21:24:28.030Z,5.95
2023-01-29T21:27:33.365Z,6.02
2023-01-29T21:30:39.228Z,5.98
2023-01-29T21:33:44.607Z,5.90
2023-01-29T21:36:49.861Z,5.63
2023-01-29T21:39:55.060Z,5.56
2023-01-29T21:43:16.053Z,5.63
2023-01-29T21:46:21.342Z,5.77
2023-01-29T21:49:27.179Z,5.40
2023-01-29T21:52:32.475Z,5.82
2023-01-29T21:55:37.727Z,5.72
2023-01-29T21:58:43.218Z,5.86
2023-01-29T22:01:48.431Z,5.54
2023-01-29T22:05:05.282Z,5.50
2023-01-29T22:08:17.613Z,5.50
2023-01-29T22:11:23.274Z,5.57
2023-01-29T22:14:28.547Z,5.59
2023-01-29T22:17:33.967Z,5.68
2023-01-29T22:20:39.199Z,5.62
2023-01-29T22:23:45.297Z,5.82
2023-01-29T22:26:50.558Z,5.73
2023-01-29T22:29:55.931Z,5.83
2023-01-29T22:33:01.758Z,5.72
2023-01-29T22:36:08.146Z,5.80
2023-01-29T22:39:13.879Z,5.68
2023-01-29T22:42:21.121Z,5.50
2023-01-29T22:45:27.133Z,5.41
2023-01-29T22:48:32.462Z,5.47
2023-01-29T22:51:38.268Z,5.75
2023-01-29T22:54:43.830Z,5.94
2023-01-29T22:57:50.801Z,6.03
2023-01-29T23:00:56.160Z,5.97
2023-01-29T23:04:02.235Z,6.02
2023-01-29T23:07:07.544Z,5.94
2023-01-29T23:10:16.571Z,6.10
2023-01-29T23:13:22.167Z,5.83
2023-01-29T23:16:29.240Z,6.03
2023-01-29T23:19:34.669Z,5.77
2023-01-29T23:22:39.985Z,5.83
2023-01-29T23:26:03.174Z,5.92
2023-01-29T23:29:08.479Z,6.12
2023-01-29T23:32:15.028Z,5.89
2023-01-29T23:35:20.276Z,6.28
2023-01-29T23:38:25.667Z,6.10
2023-01-29T23:41:30.904Z,6.22
2023-01-29T23:44:36.740Z,5.95
2023-01-29T23:47:42.285Z,5.99
2023-01-29T23:50:47.901Z,5.80
2023-01-29T23:53:53.153Z,5.87
2023-01-29T23:56:58.505Z,5.90
